sensor_id;sensor_type;location;lat;lon;timestamp;pressure;altitude;pressure_sealevel;temperature;humidity
57885;BME280;43703;51.060;-0.086;2023-03-14T00:00:25;97404.42;;;5.87;87.06
57885;BME280;43703;51.060;-0.086;2023-03-14T00:02:52;97405.47;;;5.54;90.51
57885;BME280;43703;51.060;-0.086;2023-03-14T00:05:16;97402.39;;;5.27;91.12
57885;BME280;43703;51.060;-0.086;2023-03-14T00:07:40;97398.65;;;5.29;90.87
57885;BME280;43703;51.060;-0.086;2023-03-14T00:10:10;97403.90;;;5.81;89.07
57885;BME280;43703;51.060;-0.086;2023-03-14T00:12:31;97398.49;;;5.85;87.99
57885;BME280;43703;51.060;-0.086;2023-03-14T00:14:56;97391.94;;;5.78;87.52
57885;BME280;43703;51.060;-0.086;2023-03-14T00:17:22;97392.79;;;5.44;91.09
57885;BME280;43703;51.060;-0.086;2023-03-14T00:19:48;97391.99;;;6.29;87.35
57885;BME280;43703;51.060;-0.086;2023-03-14T00:22:18;97391.87;;;5.78;88.18
57885;BME280;43703;51.060;-0.086;2023-03-14T00:24:38;97392.49;;;5.83;90.33
57885;BME280;43703;51.060;-0.086;2023-03-14T00:27:03;97392.44;;;6.35;88.65
57885;BME280;43703;51.060;-0.086;2023-03-14T00:29:28;97390.80;;;5.53;90.21
57885;BME280;43703;51.060;-0.086;2023-03-14T00:31:53;97396.05;;;5.72;90.79
57885;BME280;43703;51.060;-0.086;2023-03-14T00:34:19;97394.54;;;5.88;90.12
57885;BME280;43703;51.060;-0.086;2023-03-14T00:36:44;97397.69;;;5.82;91.84
57885;BME280;43703;51.060;-0.086;2023-03-14T00:39:09;97398.27;;;5.49;92.62
57885;BME280;43703;51.060;-0.086;2023-03-14T00:41:34;97393.85;;;6.25;89.64
57885;BME280;43703;51.060;-0.086;2023-03-14T00:43:59;97397.74;;;5.44;91.67
57885;BME280;43703;51.060;-0.086;2023-03-14T00:46:25;97397.42;;;5.74;92.24
57885;BME280;43703;51.060;-0.086;2023-03-14T00:48:50;97395.43;;;5.58;93.16
57885;BME280;43703;51.060;-0.086;2023-03-14T00:51:16;97394.93;;;5.11;93.96
57885;BME280;43703;51.060;-0.086;2023-03-14T00:53:42;97398.49;;;5.87;92.07
57885;BME280;43703;51.060;-0.086;2023-03-14T00:56:10;97400.18;;;6.22;89.33
57885;BME280;43703;51.060;-0.086;2023-03-14T00:58:32;97397.36;;;6.26;88.83
57885;BME280;43703;51.060;-0.086;2023-03-14T01:00:57;97396.82;;;5.82;91.50
57885;BME280;43703;51.060;-0.086;2023-03-14T01:03:22;97398.04;;;5.57;92.20
57885;BME280;43703;51.060;-0.086;2023-03-14T01:05:48;97400.36;;;6.04;91.07
57885;BME280;43703;51.060;-0.086;2023-03-14T01:08:13;97401.87;;;6.13;91.26
57885;BME280;43703;51.060;-0.086;2023-03-14T01:10:39;97402.20;;;5.79;90.86
57885;BME280;43703;51.060;-0.086;2023-03-14T01:13:03;97402.20;;;5.29;93.18
57885;BME280;43703;51.060;-0.086;2023-03-14T01:15:28;97405.77;;;5.87;90.30
57885;BME280;43703;51.060;-0.086;2023-03-14T01:17:53;97406.63;;;5.98;90.58
57885;BME280;43703;51.060;-0.086;2023-03-14T01:20:18;97407.84;;;6.75;87.26
57885;BME280;43703;51.060;-0.086;2023-03-14T01:22:44;97406.50;;;6.44;87.28
57885;BME280;43703;51.060;-0.086;2023-03-14T01:25:10;97410.21;;;5.68;89.86
57885;BME280;43703;51.060;-0.086;2023-03-14T01:27:33;97410.11;;;6.20;88.44
57885;BME280;43703;51.060;-0.086;2023-03-14T01:29:58;97413.27;;;5.60;91.08
57885;BME280;43703;51.060;-0.086;2023-03-14T01:32:23;97408.97;;;5.93;91.02
57885;BME280;43703;51.060;-0.086;2023-03-14T01:34:48;97411.59;;;5.37;94.22
57885;BME280;43703;51.060;-0.086;2023-03-14T01:37:14;97415.08;;;5.28;94.58
57885;BME280;43703;51.060;-0.086;2023-03-14T01:39:38;97415.90;;;5.48;93.81
57885;BME280;43703;51.060;-0.086;2023-03-14T01:42:03;97415.31;;;6.08;90.86
57885;BME280;43703;51.060;-0.086;2023-03-14T01:44:44;97423.21;;;5.84;90.31
57885;BME280;43703;51.060;-0.086;2023-03-14T01:46:53;97432.02;;;6.41;88.90
57885;BME280;43703;51.060;-0.086;2023-03-14T01:49:22;97436.63;;;5.34;93.51
57885;BME280;43703;51.060;-0.086;2023-03-14T01:51:48;97470.22;;;5.73;91.14
57885;BME280;43703;51.060;-0.086;2023-03-14T01:54:14;97508.97;;;6.50;85.39
57885;BME280;43703;51.060;-0.086;2023-03-14T01:56:34;97524.17;;;5.72;86.12
57885;BME280;43703;51.060;-0.086;2023-03-14T01:58:59;97533.96;;;5.02;87.44
57885;BME280;43703;51.060;-0.086;2023-03-14T02:01:25;97544.92;;;5.07;85.92
57885;BME280;43703;51.060;-0.086;2023-03-14T02:03:52;97551.70;;;6.01;81.90
57885;BME280;43703;51.060;-0.086;2023-03-14T02:06:15;97546.62;;;5.76;80.82
57885;BME280;43703;51.060;-0.086;2023-03-14T02:08:40;97558.14;;;5.00;82.65
57885;BME280;43703;51.060;-0.086;2023-03-14T02:11:09;97571.98;;;4.48;85.18
57885;BME280;43703;51.060;-0.086;2023-03-14T02:13:29;97576.93;;;4.38;85.64
57885;BME280;43703;51.060;-0.086;2023-03-14T02:15:54;97592.04;;;5.05;82.16
57885;BME280;43703;51.060;-0.086;2023-03-14T02:18:19;97599.06;;;4.70;83.93
57885;BME280;43703;51.060;-0.086;2023-03-14T02:20:50;97608.80;;;5.90;80.19
57885;BME280;43703;51.060;-0.086;2023-03-14T02:23:09;97611.97;;;5.08;80.02
57885;BME280;43703;51.060;-0.086;2023-03-14T02:25:40;97635.36;;;4.33;80.51
57885;BME280;43703;51.060;-0.086;2023-03-14T02:28:00;97645.89;;;4.29;82.94
57885;BME280;43703;51.060;-0.086;2023-03-14T02:30:27;97642.66;;;4.83;80.40
57885;BME280;43703;51.060;-0.086;2023-03-14T02:32:58;97649.59;;;4.61;80.35
57885;BME280;43703;51.060;-0.086;2023-03-14T02:35:18;97653.93;;;4.81;80.38
57885;BME280;43703;51.060;-0.086;2023-03-14T02:37:42;97663.18;;;5.08;80.48
57885;BME280;43703;51.060;-0.086;2023-03-14T02:40:06;97671.76;;;3.95;82.58
57885;BME280;43703;51.060;-0.086;2023-03-14T02:42:30;97667.40;;;5.10;80.63
57885;BME280;43703;51.060;-0.086;2023-03-14T02:44:58;97673.48;;;4.66;80.93
57885;BME280;43703;51.060;-0.086;2023-03-14T02:47:25;97682.55;;;4.92;79.72
57885;BME280;43703;51.060;-0.086;2023-03-14T02:49:45;97693.10;;;4.17;82.13
57885;BME280;43703;51.060;-0.086;2023-03-14T02:52:10;97700.73;;;4.08;81.56
57885;BME280;43703;51.060;-0.086;2023-03-14T02:54:35;97705.19;;;3.93;82.52
57885;BME280;43703;51.060;-0.086;2023-03-14T02:57:00;97710.91;;;4.17;81.48
57885;BME280;43703;51.060;-0.086;2023-03-14T02:59:25;97719.84;;;4.49;78.66
57885;BME280;43703;51.060;-0.086;2023-03-14T03:01:50;97723.48;;;3.55;78.88
57885;BME280;43703;51.060;-0.086;2023-03-14T03:04:15;97732.93;;;4.34;77.68
57885;BME280;43703;51.060;-0.086;2023-03-14T03:06:40;97741.99;;;4.01;78.39
57885;BME280;43703;51.060;-0.086;2023-03-14T03:09:05;97745.42;;;2.89;80.30
57885;BME280;43703;51.060;-0.086;2023-03-14T03:11:30;97754.26;;;3.70;79.44
57885;BME280;43703;51.060;-0.086;2023-03-14T03:13:55;97760.98;;;3.66;77.92
57885;BME280;43703;51.060;-0.086;2023-03-14T03:16:20;97774.42;;;2.87;80.21
57885;BME280;43703;51.060;-0.086;2023-03-14T03:18:46;97786.77;;;2.92;78.93
57885;BME280;43703;51.060;-0.086;2023-03-14T03:21:11;97799.53;;;2.59;82.28
57885;BME280;43703;51.060;-0.086;2023-03-14T03:23:36;97800.56;;;3.16;79.66
57885;BME280;43703;51.060;-0.086;2023-03-14T03:26:01;97808.62;;;2.04;82.59
57885;BME280;43703;51.060;-0.086;2023-03-14T03:28:26;97819.26;;;2.51;81.67
57885;BME280;43703;51.060;-0.086;2023-03-14T03:30:51;97819.96;;;2.74;82.01
57885;BME280;43703;51.060;-0.086;2023-03-14T03:33:16;97834.20;;;3.09;79.45
57885;BME280;43703;51.060;-0.086;2023-03-14T03:35:45;97847.92;;;2.14;79.88
57885;BME280;43703;51.060;-0.086;2023-03-14T03:38:06;97853.20;;;2.42;79.78
57885;BME280;43703;51.060;-0.086;2023-03-14T03:40:31;97867.02;;;1.84;80.46
57885;BME280;43703;51.060;-0.086;2023-03-14T03:42:56;97873.05;;;2.09;80.99
57885;BME280;43703;51.060;-0.086;2023-03-14T03:45:21;97880.65;;;1.95;80.04
57885;BME280;43703;51.060;-0.086;2023-03-14T03:47:47;97886.78;;;1.83;80.23
57885;BME280;43703;51.060;-0.086;2023-03-14T03:50:12;97889.60;;;1.97;80.34
57885;BME280;43703;51.060;-0.086;2023-03-14T03:52:37;97892.93;;;1.82;80.82
57885;BME280;43703;51.060;-0.086;2023-03-14T03:55:02;97902.02;;;1.72;78.81
57885;BME280;43703;51.060;-0.086;2023-03-14T03:57:27;97906.29;;;1.66;80.84
57885;BME280;43703;51.060;-0.086;2023-03-14T03:59:52;97917.06;;;1.73;78.46
57885;BME280;43703;51.060;-0.086;2023-03-14T04:02:17;97929.52;;;1.94;77.21
57885;BME280;43703;51.060;-0.086;2023-03-14T04:04:43;97931.32;;;1.33;78.68
57885;BME280;43703;51.060;-0.086;2023-03-14T04:07:08;97942.32;;;2.07;77.64
57885;BME280;43703;51.060;-0.086;2023-03-14T04:09:38;97949.49;;;1.46;78.54
57885;BME280;43703;51.060;-0.086;2023-03-14T04:11:58;97955.21;;;1.09;76.52
57885;BME280;43703;51.060;-0.086;2023-03-14T04:14:23;97963.07;;;1.38;77.44
57885;BME280;43703;51.060;-0.086;2023-03-14T04:16:48;97974.32;;;2.15;76.93
57885;BME280;43703;51.060;-0.086;2023-03-14T04:19:13;97976.42;;;1.43;78.48
57885;BME280;43703;51.060;-0.086;2023-03-14T04:21:38;97985.51;;;1.49;77.54
57885;BME280;43703;51.060;-0.086;2023-03-14T04:24:04;97998.28;;;1.03;77.22
57885;BME280;43703;51.060;-0.086;2023-03-14T04:26:28;98005.72;;;1.07;77.81
57885;BME280;43703;51.060;-0.086;2023-03-14T04:28:54;98016.06;;;1.06;77.36
57885;BME280;43703;51.060;-0.086;2023-03-14T04:31:21;98006.92;;;0.99;77.93
57885;BME280;43703;51.060;-0.086;2023-03-14T04:33:44;98024.68;;;0.81;77.23
57885;BME280;43703;51.060;-0.086;2023-03-14T04:36:10;98028.88;;;0.77;77.95
57885;BME280;43703;51.060;-0.086;2023-03-14T04:38:34;98035.69;;;0.78;78.19
57885;BME280;43703;51.060;-0.086;2023-03-14T04:41:00;98041.00;;;1.18;74.07
57885;BME280;43703;51.060;-0.086;2023-03-14T04:43:25;98057.74;;;1.01;74.13
57885;BME280;43703;51.060;-0.086;2023-03-14T04:45:49;98071.75;;;1.26;73.92
57885;BME280;43703;51.060;-0.086;2023-03-14T04:48:15;98078.60;;;0.61;75.98
57885;BME280;43703;51.060;-0.086;2023-03-14T04:50:40;98086.93;;;0.63;74.67
57885;BME280;43703;51.060;-0.086;2023-03-14T04:53:05;98090.64;;;1.34;72.38
57885;BME280;43703;51.060;-0.086;2023-03-14T04:55:31;98091.29;;;0.91;73.08
57885;BME280;43703;51.060;-0.086;2023-03-14T04:57:55;98090.86;;;0.42;73.73
57885;BME280;43703;51.060;-0.086;2023-03-14T05:00:20;98104.27;;;0.88;73.80
57885;BME280;43703;51.060;-0.086;2023-03-14T05:02:45;98112.22;;;0.50;72.52
57885;BME280;43703;51.060;-0.086;2023-03-14T05:05:10;98116.86;;;0.32;73.30
57885;BME280;43703;51.060;-0.086;2023-03-14T05:07:35;98115.69;;;0.10;73.38
57885;BME280;43703;51.060;-0.086;2023-03-14T05:10:04;98111.75;;;-0.11;73.34
57885;BME280;43703;51.060;-0.086;2023-03-14T05:12:26;98119.73;;;0.25;71.85
57885;BME280;43703;51.060;-0.086;2023-03-14T05:14:51;98120.12;;;0.15;70.51
57885;BME280;43703;51.060;-0.086;2023-03-14T05:17:16;98129.06;;;0.17;71.58
57885;BME280;43703;51.060;-0.086;2023-03-14T05:19:41;98127.02;;;1.02;69.35
57885;BME280;43703;51.060;-0.086;2023-03-14T05:22:06;98143.04;;;0.49;70.27
57885;BME280;43703;51.060;-0.086;2023-03-14T05:24:32;98136.86;;;0.87;70.16
57885;BME280;43703;51.060;-0.086;2023-03-14T05:26:56;98149.89;;;0.38;69.70
57885;BME280;43703;51.060;-0.086;2023-03-14T05:29:21;98152.96;;;0.05;70.60
57885;BME280;43703;51.060;-0.086;2023-03-14T05:31:46;98152.80;;;0.38;69.76
57885;BME280;43703;51.060;-0.086;2023-03-14T05:34:12;98148.06;;;0.95;68.15
57885;BME280;43703;51.060;-0.086;2023-03-14T05:36:38;98161.42;;;-0.01;70.21
57885;BME280;43703;51.060;-0.086;2023-03-14T05:39:02;98167.52;;;0.51;68.40
57885;BME280;43703;51.060;-0.086;2023-03-14T05:41:27;98163.91;;;0.43;70.73
57885;BME280;43703;51.060;-0.086;2023-03-14T05:43:53;98181.22;;;-0.09;70.95
57885;BME280;43703;51.060;-0.086;2023-03-14T05:46:18;98185.76;;;0.30;73.09
57885;BME280;43703;51.060;-0.086;2023-03-14T05:48:44;98185.43;;;-0.23;74.39
57885;BME280;43703;51.060;-0.086;2023-03-14T05:51:08;98190.03;;;-0.25;74.42
57885;BME280;43703;51.060;-0.086;2023-03-14T05:53:33;98197.45;;;-0.28;73.66
57885;BME280;43703;51.060;-0.086;2023-03-14T05:55:58;98218.18;;;-0.00;72.39
57885;BME280;43703;51.060;-0.086;2023-03-14T05:58:24;98218.76;;;0.31;70.95
57885;BME280;43703;51.060;-0.086;2023-03-14T06:00:50;98225.79;;;0.10;72.22
57885;BME280;43703;51.060;-0.086;2023-03-14T06:03:14;98230.10;;;-0.00;70.35
57885;BME280;43703;51.060;-0.086;2023-03-14T06:05:39;98234.75;;;-0.29;71.99
57885;BME280;43703;51.060;-0.086;2023-03-14T06:08:04;98242.49;;;0.47;70.56
57885;BME280;43703;51.060;-0.086;2023-03-14T06:10:29;98245.11;;;-0.08;72.08
57885;BME280;43703;51.060;-0.086;2023-03-14T06:12:54;98249.80;;;0.43;69.91
57885;BME280;43703;51.060;-0.086;2023-03-14T06:15:19;98258.79;;;0.32;71.00
57885;BME280;43703;51.060;-0.086;2023-03-14T06:17:44;98263.64;;;0.18;71.21
57885;BME280;43703;51.060;-0.086;2023-03-14T06:20:10;98266.96;;;0.23;71.30
57885;BME280;43703;51.060;-0.086;2023-03-14T06:22:35;98276.41;;;0.04;70.89
57885;BME280;43703;51.060;-0.086;2023-03-14T06:25:00;98279.64;;;0.10;71.36
57885;BME280;43703;51.060;-0.086;2023-03-14T06:27:25;98291.29;;;0.29;68.89
57885;BME280;43703;51.060;-0.086;2023-03-14T06:29:51;98294.58;;;0.24;69.91
57885;BME280;43703;51.060;-0.086;2023-03-14T06:32:16;98303.65;;;0.87;68.74
57885;BME280;43703;51.060;-0.086;2023-03-14T06:34:41;98313.88;;;-0.26;71.24
57885;BME280;43703;51.060;-0.086;2023-03-14T06:37:06;98316.57;;;0.84;70.96
57885;BME280;43703;51.060;-0.086;2023-03-14T06:39:31;98323.79;;;0.62;71.16
57885;BME280;43703;51.060;-0.086;2023-03-14T06:41:56;98330.18;;;0.80;69.91
57885;BME280;43703;51.060;-0.086;2023-03-14T06:44:21;98327.39;;;-0.06;73.04
57885;BME280;43703;51.060;-0.086;2023-03-14T06:46:47;98328.81;;;0.36;72.12
57885;BME280;43703;51.060;-0.086;2023-03-14T06:49:12;98339.69;;;0.79;70.26
57885;BME280;43703;51.060;-0.086;2023-03-14T06:51:38;98342.17;;;0.02;72.17
57885;BME280;43703;51.060;-0.086;2023-03-14T06:54:03;98350.77;;;0.64;71.35
57885;BME280;43703;51.060;-0.086;2023-03-14T06:56:28;98357.34;;;-0.05;73.64
57885;BME280;43703;51.060;-0.086;2023-03-14T06:58:53;98354.95;;;0.59;73.51
57885;BME280;43703;51.060;-0.086;2023-03-14T07:01:22;98362.53;;;0.52;72.98
57885;BME280;43703;51.060;-0.086;2023-03-14T07:03:43;98372.00;;;0.29;73.23
57885;BME280;43703;51.060;-0.086;2023-03-14T07:06:08;98373.83;;;1.10;69.25
57885;BME280;43703;51.060;-0.086;2023-03-14T07:08:33;98386.80;;;0.40;72.90
57885;BME280;43703;51.060;-0.086;2023-03-14T07:10:58;98397.20;;;0.86;71.53
57885;BME280;43703;51.060;-0.086;2023-03-14T07:13:24;98406.75;;;0.30;71.55
57885;BME280;43703;51.060;-0.086;2023-03-14T07:15:49;98413.99;;;1.90;70.21
57885;BME280;43703;51.060;-0.086;2023-03-14T07:18:14;98432.05;;;1.25;69.74
57885;BME280;43703;51.060;-0.086;2023-03-14T07:20:39;98442.28;;;0.69;70.96
57885;BME280;43703;51.060;-0.086;2023-03-14T07:23:04;98447.51;;;1.07;70.52
57885;BME280;43703;51.060;-0.086;2023-03-14T07:25:29;98447.64;;;1.54;70.03
57885;BME280;43703;51.060;-0.086;2023-03-14T07:27:55;98453.99;;;1.56;71.54
57885;BME280;43703;51.060;-0.086;2023-03-14T07:30:20;98454.44;;;1.79;69.74
57885;BME280;43703;51.060;-0.086;2023-03-14T07:32:45;98466.75;;;1.43;70.63
57885;BME280;43703;51.060;-0.086;2023-03-14T07:35:10;98468.29;;;1.85;69.74
57885;BME280;43703;51.060;-0.086;2023-03-14T07:37:35;98474.54;;;1.54;71.03
57885;BME280;43703;51.060;-0.086;2023-03-14T07:40:01;98488.60;;;1.17;71.95
57885;BME280;43703;51.060;-0.086;2023-03-14T07:42:26;98492.18;;;1.09;72.47
57885;BME280;43703;51.060;-0.086;2023-03-14T07:44:51;98501.26;;;1.30;72.48
57885;BME280;43703;51.060;-0.086;2023-03-14T07:47:16;98506.57;;;1.82;70.43
57885;BME280;43703;51.060;-0.086;2023-03-14T07:49:42;98501.81;;;1.65;72.37
57885;BME280;43703;51.060;-0.086;2023-03-14T07:52:07;98515.28;;;1.78;69.78
57885;BME280;43703;51.060;-0.086;2023-03-14T07:54:32;98510.47;;;2.30;68.10
57885;BME280;43703;51.060;-0.086;2023-03-14T07:56:58;98520.69;;;2.09;69.29
57885;BME280;43703;51.060;-0.086;2023-03-14T07:59:23;98526.01;;;3.14;69.31
57885;BME280;43703;51.060;-0.086;2023-03-14T08:01:49;98529.96;;;2.69;67.41
57885;BME280;43703;51.060;-0.086;2023-03-14T08:04:14;98550.17;;;2.69;67.03
57885;BME280;43703;51.060;-0.086;2023-03-14T08:06:39;98552.56;;;2.83;65.46
57885;BME280;43703;51.060;-0.086;2023-03-14T08:09:04;98563.84;;;3.09;66.43
57885;BME280;43703;51.060;-0.086;2023-03-14T08:11:29;98566.80;;;2.80;66.15
57885;BME280;43703;51.060;-0.086;2023-03-14T08:13:54;98569.93;;;2.95;66.35
57885;BME280;43703;51.060;-0.086;2023-03-14T08:16:20;98583.68;;;2.61;66.94
57885;BME280;43703;51.060;-0.086;2023-03-14T08:18:45;98588.36;;;3.26;65.12
57885;BME280;43703;51.060;-0.086;2023-03-14T08:21:10;98596.08;;;2.38;66.92
57885;BME280;43703;51.060;-0.086;2023-03-14T08:23:35;98595.41;;;2.54;68.81
57885;BME280;43703;51.060;-0.086;2023-03-14T08:26:00;98613.73;;;2.60;67.63
57885;BME280;43703;51.060;-0.086;2023-03-14T08:28:25;98616.61;;;3.02;65.76
57885;BME280;43703;51.060;-0.086;2023-03-14T08:30:50;98623.82;;;3.15;66.56
57885;BME280;43703;51.060;-0.086;2023-03-14T08:33:15;98631.77;;;4.30;66.07
57885;BME280;43703;51.060;-0.086;2023-03-14T08:35:40;98637.81;;;4.74;62.84
57885;BME280;43703;51.060;-0.086;2023-03-14T08:38:05;98641.99;;;4.30;60.67
57885;BME280;43703;51.060;-0.086;2023-03-14T08:40:30;98664.51;;;4.86;60.72
57885;BME280;43703;51.060;-0.086;2023-03-14T08:42:55;98664.62;;;3.84;63.90
57885;BME280;43703;51.060;-0.086;2023-03-14T08:45:20;98677.32;;;3.86;62.58
57885;BME280;43703;51.060;-0.086;2023-03-14T08:47:45;98680.05;;;4.39;64.14
57885;BME280;43703;51.060;-0.086;2023-03-14T08:50:11;98688.62;;;4.46;64.39
57885;BME280;43703;51.060;-0.086;2023-03-14T08:52:37;98702.82;;;4.89;67.74
57885;BME280;43703;51.060;-0.086;2023-03-14T08:55:01;98712.13;;;3.83;62.79
57885;BME280;43703;51.060;-0.086;2023-03-14T08:57:26;98717.00;;;5.04;62.40
57885;BME280;43703;51.060;-0.086;2023-03-14T08:59:51;98721.13;;;4.44;62.62
57885;BME280;43703;51.060;-0.086;2023-03-14T09:02:16;98736.39;;;4.06;61.48
57885;BME280;43703;51.060;-0.086;2023-03-14T09:04:41;98737.94;;;5.01;60.02
57885;BME280;43703;51.060;-0.086;2023-03-14T09:07:06;98745.16;;;4.99;62.37
57885;BME280;43703;51.060;-0.086;2023-03-14T09:09:31;98753.71;;;5.15;59.96
57885;BME280;43703;51.060;-0.086;2023-03-14T09:11:57;98765.92;;;5.46;59.35
57885;BME280;43703;51.060;-0.086;2023-03-14T09:14:21;98768.93;;;5.96;60.37
57885;BME280;43703;51.060;-0.086;2023-03-14T09:16:46;98778.52;;;6.03;60.74
57885;BME280;43703;51.060;-0.086;2023-03-14T09:19:11;98787.03;;;5.79;60.72
57885;BME280;43703;51.060;-0.086;2023-03-14T09:21:36;98801.93;;;5.56;62.80
57885;BME280;43703;51.060;-0.086;2023-03-14T09:24:01;98809.53;;;4.84;60.97
57885;BME280;43703;51.060;-0.086;2023-03-14T09:26:26;98821.54;;;4.36;61.71
57885;BME280;43703;51.060;-0.086;2023-03-14T09:28:51;98835.09;;;4.22;62.90
57885;BME280;43703;51.060;-0.086;2023-03-14T09:31:16;98842.76;;;5.18;63.47
57885;BME280;43703;51.060;-0.086;2023-03-14T09:33:41;98853.90;;;6.87;62.80
57885;BME280;43703;51.060;-0.086;2023-03-14T09:36:07;98854.85;;;7.46;61.56
57885;BME280;43703;51.060;-0.086;2023-03-14T09:38:32;98861.17;;;8.48;62.92
57885;BME280;43703;51.060;-0.086;2023-03-14T09:40:59;98868.04;;;7.88;55.93
57885;BME280;43703;51.060;-0.086;2023-03-14T09:43:22;98876.12;;;7.97;57.90
57885;BME280;43703;51.060;-0.086;2023-03-14T09:45:48;98880.39;;;9.20;58.63
57885;BME280;43703;51.060;-0.086;2023-03-14T09:48:15;98882.27;;;8.92;52.18
57885;BME280;43703;51.060;-0.086;2023-03-14T09:50:48;98890.72;;;9.11;53.70
57885;BME280;43703;51.060;-0.086;2023-03-14T09:53:08;98895.86;;;9.50;55.07
57885;BME280;43703;51.060;-0.086;2023-03-14T09:55:29;98903.62;;;7.78;53.25
57885;BME280;43703;51.060;-0.086;2023-03-14T09:57:59;98914.61;;;7.50;55.66
57885;BME280;43703;51.060;-0.086;2023-03-14T10:00:22;98926.61;;;5.26;58.69
57885;BME280;43703;51.060;-0.086;2023-03-14T10:02:49;98937.84;;;6.25;58.79
57885;BME280;43703;51.060;-0.086;2023-03-14T10:05:15;98946.74;;;5.72;58.22
57885;BME280;43703;51.060;-0.086;2023-03-14T10:07:34;98954.61;;;6.20;58.39
57885;BME280;43703;51.060;-0.086;2023-03-14T10:10:00;98960.55;;;6.47;56.18
57885;BME280;43703;51.060;-0.086;2023-03-14T10:12:31;98977.34;;;5.52;59.84
57885;BME280;43703;51.060;-0.086;2023-03-14T10:14:52;98979.69;;;6.77;60.04
57885;BME280;43703;51.060;-0.086;2023-03-14T10:17:16;98991.62;;;5.99;58.53
57885;BME280;43703;51.060;-0.086;2023-03-14T10:19:53;98997.26;;;7.57;58.58
57885;BME280;43703;51.060;-0.086;2023-03-14T10:22:05;99007.14;;;8.04;59.37
57885;BME280;43703;51.060;-0.086;2023-03-14T10:24:31;99018.82;;;8.73;58.62
57885;BME280;43703;51.060;-0.086;2023-03-14T10:26:57;99027.84;;;7.78;54.62
57885;BME280;43703;51.060;-0.086;2023-03-14T10:29:25;99041.58;;;7.80;55.06
57885;BME280;43703;51.060;-0.086;2023-03-14T10:31:48;99050.30;;;8.12;55.33
57885;BME280;43703;51.060;-0.086;2023-03-14T10:34:15;99053.23;;;7.55;56.01
57885;BME280;43703;51.060;-0.086;2023-03-14T10:36:35;99066.32;;;6.17;55.92
57885;BME280;43703;51.060;-0.086;2023-03-14T10:41:26;99081.09;;;6.92;56.44
57885;BME280;43703;51.060;-0.086;2023-03-14T10:43:50;99087.58;;;7.80;54.30
57885;BME280;43703;51.060;-0.086;2023-03-14T10:46:16;99100.79;;;6.91;55.69
57885;BME280;43703;51.060;-0.086;2023-03-14T10:48:40;99102.63;;;7.35;55.53
57885;BME280;43703;51.060;-0.086;2023-03-14T10:51:07;99108.14;;;7.36;55.13
57885;BME280;43703;51.060;-0.086;2023-03-14T10:53:34;99115.71;;;9.05;53.61
57885;BME280;43703;51.060;-0.086;2023-03-14T10:55:56;99113.81;;;10.31;51.59
57885;BME280;43703;51.060;-0.086;2023-03-14T10:58:22;99113.56;;;11.95;49.12
57885;BME280;43703;51.060;-0.086;2023-03-14T11:00:50;99112.96;;;11.44;45.53
57885;BME280;43703;51.060;-0.086;2023-03-14T11:03:13;99127.48;;;12.98;47.38
57885;BME280;43703;51.060;-0.086;2023-03-14T11:05:41;99128.79;;;14.42;45.45
57885;BME280;43703;51.060;-0.086;2023-03-14T11:08:09;99137.33;;;14.36;42.60
57885;BME280;43703;51.060;-0.086;2023-03-14T11:10:32;99147.47;;;12.95;43.06
57885;BME280;43703;51.060;-0.086;2023-03-14T11:13:02;99154.43;;;13.49;44.18
57885;BME280;43703;51.060;-0.086;2023-03-14T11:15:27;99163.22;;;13.52;39.51
57885;BME280;43703;51.060;-0.086;2023-03-14T11:17:59;99170.26;;;12.05;43.23
57885;BME280;43703;51.060;-0.086;2023-03-14T11:20:25;99181.93;;;10.71;42.81
57885;BME280;43703;51.060;-0.086;2023-03-14T11:22:42;99180.70;;;10.92;44.64
57885;BME280;43703;51.060;-0.086;2023-03-14T11:25:14;99178.59;;;12.35;43.43
57885;BME280;43703;51.060;-0.086;2023-03-14T11:27:36;99180.10;;;14.06;39.28
57885;BME280;43703;51.060;-0.086;2023-03-14T11:30:02;99177.83;;;16.13;38.51
57885;BME280;43703;51.060;-0.086;2023-03-14T11:32:31;99184.95;;;14.67;37.68
57885;BME280;43703;51.060;-0.086;2023-03-14T11:34:51;99186.91;;;16.55;39.40
57885;BME280;43703;51.060;-0.086;2023-03-14T11:37:16;99197.80;;;15.17;35.82
57885;BME280;43703;51.060;-0.086;2023-03-14T11:39:40;99199.72;;;16.61;36.12
57885;BME280;43703;51.060;-0.086;2023-03-14T11:42:10;99204.62;;;14.75;36.36
57885;BME280;43703;51.060;-0.086;2023-03-14T11:44:34;99210.67;;;13.86;37.47
57885;BME280;43703;51.060;-0.086;2023-03-14T11:47:02;99208.65;;;13.99;38.12
57885;BME280;43703;51.060;-0.086;2023-03-14T11:49:30;99212.06;;;15.37;38.15
57885;BME280;43703;51.060;-0.086;2023-03-14T11:51:51;99220.27;;;13.26;40.62
57885;BME280;43703;51.060;-0.086;2023-03-14T11:54:17;99227.55;;;12.48;37.56
57885;BME280;43703;51.060;-0.086;2023-03-14T11:56:45;99233.18;;;13.07;41.29
57885;BME280;43703;51.060;-0.086;2023-03-14T11:59:12;99234.01;;;11.87;39.90
57885;BME280;43703;51.060;-0.086;2023-03-14T12:01:40;99232.46;;;12.65;44.46
57885;BME280;43703;51.060;-0.086;2023-03-14T12:04:02;99230.70;;;13.64;39.65
57885;BME280;43703;51.060;-0.086;2023-03-14T12:06:27;99232.45;;;13.90;39.76
57885;BME280;43703;51.060;-0.086;2023-03-14T12:08:50;99235.82;;;12.55;38.13
57885;BME280;43703;51.060;-0.086;2023-03-14T12:11:20;99241.36;;;16.29;36.52
57885;BME280;43703;51.060;-0.086;2023-03-14T12:13:41;99242.34;;;15.83;33.85
57885;BME280;43703;51.060;-0.086;2023-03-14T12:18:35;99252.71;;;15.59;33.42
57885;BME280;43703;51.060;-0.086;2023-03-14T12:21:00;99260.45;;;16.04;32.29
57885;BME280;43703;51.060;-0.086;2023-03-14T12:23:25;99264.17;;;14.54;33.79
57885;BME280;43703;51.060;-0.086;2023-03-14T12:28:19;99272.33;;;16.46;31.52
57885;BME280;43703;51.060;-0.086;2023-03-14T12:30:42;99276.47;;;15.46;36.63
57885;BME280;43703;51.060;-0.086;2023-03-14T12:35:35;99284.11;;;13.95;37.40
57885;BME280;43703;51.060;-0.086;2023-03-14T12:38:00;99289.17;;;13.18;40.06
57885;BME280;43703;51.060;-0.086;2023-03-14T12:40:30;99287.03;;;12.49;39.57
57885;BME280;43703;51.060;-0.086;2023-03-14T12:42:57;99291.27;;;12.55;39.58
57885;BME280;43703;51.060;-0.086;2023-03-14T12:45:22;99304.19;;;12.52;40.74
57885;BME280;43703;51.060;-0.086;2023-03-14T12:47:51;99306.00;;;12.46;38.46
57885;BME280;43703;51.060;-0.086;2023-03-14T12:50:16;99313.43;;;11.78;41.60
57885;BME280;43703;51.060;-0.086;2023-03-14T12:52:40;99328.90;;;9.24;43.24
57885;BME280;43703;51.060;-0.086;2023-03-14T12:55:03;99331.85;;;9.99;44.94